Time;durP1;ratioP1;P1;durP2;ratioP2;P2;SDS_P1;SDS_P2;PMS_P1;PMS_P2;Temp;Humidity;BMP_temperature;BMP_pressure;BME280_temperature;BME280_humidity;BME280_pressure;Samples;Min_cycle;Max_cycle;Signal;HPM_P1;HPM_P2
2023/09/04 00:01:40;;;;;;;;;6.00;6.00;;;;;26.50;66.76;101557.38;4889165;29;44942;-81
2023/09/04 00:04:09;;;;;;;;;6.00;5.25;;;;;26.53;65.94;101562.69;4889051;29;45468;-81
2023/09/04 00:06:35;;;;;;;;;6.00;6.00;;;;;26.49;66.40;101558.31;4903818;29;45453;-81
2023/09/04 00:09:00;;;;;;;;;6.25;6.25;;;;;26.49;66.49;101560.16;4888409;29;46769;-81
2023/09/04 00:11:27;;;;;;;;;3.25;3.00;;;;;26.50;66.93;101560.13;4907042;29;45394;-81
2023/09/04 00:13:52;;;;;;;;;6.50;5.75;;;;;26.45;66.57;101553.06;4906883;28;44849;-81
2023/09/04 00:16:19;;;;;;;;;6.00;6.00;;;;;26.47;66.67;101549.31;4911027;28;44998;-80
2023/09/04 00:18:44;;;;;;;;;6.67;6.33;;;;;26.41;66.55;101551.41;4910494;28;45069;-79
2023/09/04 00:21:09;;;;;;;;;6.67;6.67;;;;;26.37;66.71;101539.72;4927714;28;44753;-81
2023/09/04 00:23:35;;;;;;;;;5.50;5.25;;;;;26.35;66.54;101545.22;4927640;28;44892;-81
2023/09/04 00:26:03;;;;;;;;;4.50;4.50;;;;;26.43;66.45;101534.00;4911178;28;44837;-78
2023/09/04 00:28:30;;;;;;;;;5.00;5.00;;;;;26.35;66.43;101536.16;4928311;28;45118;-79
2023/09/04 00:30:57;;;;;;;;;6.50;6.25;;;;;26.36;66.35;101535.22;4912597;28;44763;-81
2023/09/04 00:33:22;;;;;;;;;7.50;7.00;;;;;26.33;66.44;101536.22;4928670;28;44954;-79
2023/09/04 00:35:48;;;;;;;;;6.33;6.33;;;;;26.27;66.14;101524.66;4913411;28;44880;-81
2023/09/04 00:38:22;;;;;;;;;6.00;6.00;;;;;26.48;66.60;101532.00;4927994;28;46754;-80
2023/09/04 00:40:47;;;;;;;;;6.00;6.00;;;;;26.28;66.60;101527.34;4929124;28;44763;-80
2023/09/04 00:43:13;;;;;;;;;6.75;6.75;;;;;26.28;66.29;101523.72;4912990;28;45254;-80
2023/09/04 00:45:41;;;;;;;;;7.00;7.00;;;;;26.30;66.42;101525.44;4930200;28;44776;-80
2023/09/04 00:48:07;;;;;;;;;7.75;7.00;;;;;26.23;66.48;101528.47;4929633;28;45169;-79
2023/09/04 00:50:35;;;;;;;;;6.33;6.33;;;;;26.09;66.55;101494.44;4913431;28;44763;-81
2023/09/04 00:53:04;;;;;;;;;7.00;6.67;;;;;26.24;67.02;101513.84;4929664;28;44767;-79
2023/09/04 00:55:30;;;;;;;;;7.33;6.33;;;;;26.13;66.82;101526.06;4929745;28;44751;-80
2023/09/04 00:57:55;;;;;;;;;5.67;5.67;;;;;26.18;67.06;101533.19;4927200;28;46770;-81
2023/09/04 01:00:23;;;;;;;;;6.67;6.33;;;;;26.07;67.41;101529.03;4927357;28;44814;-79
2023/09/04 01:02:48;;;;;;;;;6.00;6.00;;;;;26.07;67.36;101530.88;4910225;29;44720;-80
2023/09/04 01:05:14;;;;;;;;;7.75;7.00;;;;;26.03;67.88;101527.38;4892497;29;44921;-81
2023/09/04 01:07:48;;;;;;;;;8.33;7.00;;;;;26.02;67.63;101528.34;4909574;29;46427;-80
2023/09/04 01:10:14;;;;;;;;;6.00;6.00;;;;;26.06;67.60;101527.28;4893846;29;44899;-81
2023/09/04 01:13:01;;;;;;;;;10.00;7.50;;;;;26.16;68.12;101527.81;4893528;29;45438;-80
2023/09/04 01:15:29;;;;;;;;;5.33;5.33;;;;;26.02;67.79;101525.63;4893525;29;44965;-80
2023/09/04 01:17:55;;;;;;;;;8.67;8.67;;;;;25.85;68.17;101511.69;4893579;29;46987;-80
2023/09/04 01:20:24;;;;;;;;;6.25;6.25;;;;;25.95;68.25;101513.16;4892650;29;44963;-80
2023/09/04 01:22:57;;;;;;;;;8.00;8.00;;;;;25.88;68.12;101512.47;4893137;29;44772;-81
2023/09/04 01:25:31;;;;;;;;;8.00;7.00;;;;;25.93;68.58;101515.03;4878127;29;45440;-81
2023/09/04 01:28:22;;;;;;;;;5.75;5.75;;;;;25.95;68.07;101513.16;4891698;29;47637;-80
2023/09/04 01:31:00;;;;;;;;;8.67;7.67;;;;;25.94;68.35;101503.22;4831823;29;45073;-80
2023/09/04 01:33:39;;;;;;;;;7.00;6.00;;;;;25.95;68.56;101507.69;4832495;29;44975;-80
2023/09/04 01:36:13;;;;;;;;;7.00;7.00;;;;;25.72;69.28;101495.81;4832142;29;44868;-81
2023/09/04 01:38:39;;;;;;;;;8.00;7.33;;;;;25.62;68.89;101504.38;4817877;29;46809;-80
2023/09/04 01:41:08;;;;;;;;;7.33;7.33;;;;;25.74;69.31;101503.94;4836343;29;44786;-80
2023/09/04 01:43:33;;;;;;;;;5.67;5.67;;;;;25.52;69.28;101495.66;4853643;29;44883;-80
2023/09/04 01:45:59;;;;;;;;;8.00;8.00;;;;;25.55;69.27;101503.69;4853307;29;44859;-81
2023/09/04 01:48:24;;;;;;;;;9.50;9.25;;;;;25.53;69.55;101500.13;4837008;29;47089;-81
2023/09/04 01:50:50;;;;;;;;;8.25;8.25;;;;;25.53;69.25;101494.69;4837554;29;44942;-81
2023/09/04 01:53:16;;;;;;;;;7.67;7.67;;;;;25.45;70.31;101486.81;4837287;29;44823;-81
2023/09/04 01:55:42;;;;;;;;;9.33;9.00;;;;;25.37;70.25;101480.75;4852989;29;44806;-80
2023/09/04 01:58:08;;;;;;;;;7.50;7.50;;;;;25.46;69.68;101476.81;4836769;29;46742;-80
2023/09/04 02:00:34;;;;;;;;;6.75;6.75;;;;;25.34;70.51;101468.13;4852554;29;44839;-81
2023/09/04 02:02:59;;;;;;;;;8.00;8.00;;;;;25.30;70.02;101461.00;4836202;29;44803;-82
2023/09/04 02:05:25;;;;;;;;;9.00;9.00;;;;;25.27;70.95;101452.06;4852953;29;45010;-81
2023/09/04 02:07:50;;;;;;;;;9.67;9.00;;;;;25.28;70.89;101456.56;4883400;28;46209;-80
2023/09/04 02:10:16;;;;;;;;;8.00;8.00;;;;;25.21;70.17;101455.91;4929735;28;44725;-81
2023/09/04 02:12:41;;;;;;;;;7.67;7.67;;;;;25.21;70.45;101450.47;4912014;28;44902;-80
2023/09/04 02:15:08;;;;;;;;;9.00;9.00;;;;;25.18;70.56;101453.25;4929098;28;44940;-79
2023/09/04 02:17:34;;;;;;;;;8.67;8.00;;;;;25.19;70.66;101446.88;4911283;28;47310;-79
2023/09/04 02:20:00;;;;;;;;;11.00;11.00;;;;;25.18;70.50;101450.53;4928105;28;44834;-81
2023/09/04 02:22:25;;;;;;;;;9.00;9.00;;;;;25.11;70.50;101444.44;4927302;28;44987;-78
2023/09/04 02:24:51;;;;;;;;;8.00;7.67;;;;;25.09;70.38;101450.88;4928811;28;44749;-81
2023/09/04 02:27:16;;;;;;;;;7.67;7.67;;;;;25.09;70.38;101443.59;4911778;28;46905;-81
2023/09/04 02:29:42;;;;;;;;;11.67;9.00;;;;;25.11;70.38;101449.88;4911685;28;44795;-81
2023/09/04 02:32:07;;;;;;;;;10.00;10.00;;;;;25.06;70.25;101440.09;4911513;28;44800;-80
2023/09/04 02:34:32;;;;;;;;;8.67;7.00;;;;;25.05;71.28;101443.75;4928293;28;45079;-81
2023/09/04 02:36:58;;;;;;;;;9.67;9.67;;;;;25.04;70.64;101439.25;4928288;28;45238;-82
2023/09/04 02:39:24;;;;;;;;;9.00;9.00;;;;;25.01;70.42;101436.66;4928672;28;44901;-80
2023/09/04 02:41:50;;;;;;;;;7.67;7.67;;;;;24.97;70.97;101434.97;4928750;28;44771;-80
2023/09/04 02:44:16;;;;;;;;;8.00;8.00;;;;;24.92;71.04;101432.41;4928702;28;44793;-82
2023/09/04 02:46:42;;;;;;;;;8.67;8.67;;;;;24.93;70.32;101434.19;4912186;28;47211;-80
2023/09/04 02:49:07;;;;;;;;;12.00;9.67;;;;;24.97;70.43;101440.44;4912256;28;45366;-80
2023/09/04 02:51:33;;;;;;;;;10.00;10.00;;;;;24.96;70.51;101442.22;4912446;28;44846;-80
2023/09/04 02:57:21;;;;;;;;;9.00;9.00;;;;;24.93;70.89;101429.63;4928743;28;44857;-80
2023/09/04 02:59:46;;;;;;;;;11.00;9.25;;;;;24.89;70.53;101427.06;4929050;28;44743;-81
2023/09/04 03:02:18;;;;;;;;;10.33;9.00;;;;;24.85;71.19;101433.56;4912733;28;45270;-82
2023/09/04 03:04:43;;;;;;;;;10.00;10.00;;;;;24.81;71.10;101435.50;4912418;28;44856;-81
2023/09/04 03:07:09;;;;;;;;;11.67;10.00;;;;;24.77;71.29;101425.66;4928665;28;45153;-82
2023/09/04 03:09:34;;;;;;;;;9.33;9.33;;;;;24.73;71.58;101424.00;4928061;28;44921;-80
2023/09/04 03:12:04;;;;;;;;;10.33;9.33;;;;;24.74;71.66;101428.47;4928061;28;44855;-80
2023/09/04 03:14:32;;;;;;;;;12.00;10.00;;;;;24.68;71.85;101424.16;4930512;28;44779;-80
2023/09/04 03:19:29;;;;;;;;;9.50;8.50;;;;;24.63;71.35;101423.41;4931646;28;45019;-80
2023/09/04 03:21:54;;;;;;;;;9.33;9.33;;;;;24.61;71.66;101419.84;4947696;28;45080;-79
2023/09/04 03:24:20;;;;;;;;;10.00;9.50;;;;;24.64;71.60;101427.00;4931968;28;44804;-82
2023/09/04 03:26:45;;;;;;;;;9.67;8.00;;;;;24.58;71.68;101424.50;4930754;28;46561;-82
2023/09/04 03:29:11;;;;;;;;;10.50;10.00;;;;;24.60;71.49;101423.50;4931693;28;44802;-81
2023/09/04 03:31:36;;;;;;;;;11.00;11.00;;;;;24.60;71.19;101419.91;4932432;28;45006;-79
2023/09/04 03:34:01;;;;;;;;;11.25;11.25;;;;;24.60;71.26;101419.91;4931149;28;45356;-82
2023/09/04 03:36:27;;;;;;;;;8.75;8.75;;;;;24.59;71.15;101413.56;4930746;28;47113;-81
2023/09/04 03:38:52;;;;;;;;;9.00;9.00;;;;;24.65;71.20;101409.75;4946997;28;44818;-81
2023/09/04 03:41:18;;;;;;;;;10.00;10.00;;;;;24.61;71.60;101414.41;4930947;28;45339;-82
2023/09/04 03:43:43;;;;;;;;;10.00;10.00;;;;;24.49;71.95;101403.91;4931423;28;44742;-81
2023/09/04 03:46:13;;;;;;;;;10.00;10.00;;;;;24.65;71.89;101412.47;4930886;28;47282;-81
2023/09/04 03:48:42;;;;;;;;;11.00;9.00;;;;;24.65;71.68;101420.66;4931896;28;45310;-81
2023/09/04 04:09:15;;;;;;;;;11.00;11.00;;;;;24.23;72.35;101410.19;5760547;23;45859;-81
2023/09/04 04:11:41;;;;;;;;;11.33;11.33;;;;;24.11;73.25;101401.50;4931462;28;44726;-81
2023/09/04 04:14:06;;;;;;;;;12.25;11.00;;;;;24.11;73.18;101401.50;4931029;28;44857;-81
2023/09/04 04:16:33;;;;;;;;;11.00;11.00;;;;;24.09;73.14;101397.06;4914850;28;46540;-80
2023/09/04 04:18:58;;;;;;;;;10.00;10.00;;;;;24.03;73.22;101413.56;4931582;28;44981;-80
2023/09/04 04:21:24;;;;;;;;;9.00;9.00;;;;;24.04;72.46;101412.63;4914538;28;44780;-81
2023/09/04 04:23:49;;;;;;;;;11.33;9.00;;;;;24.05;72.73;101418.00;4931409;28;44869;-81
2023/09/04 04:26:14;;;;;;;;;13.67;10.00;;;;;24.04;72.50;101416.22;4930047;28;45018;-81
2023/09/04 04:28:40;;;;;;;;;6.33;4.67;;;;;24.00;72.90;101409.13;4929918;28;45034;-81
2023/09/04 04:31:10;;;;;;;;;10.00;10.00;;;;;24.01;73.01;101416.31;4930589;28;44837;-82
2023/09/04 04:34:13;;;;;;;;;10.33;10.33;;;;;24.14;72.87;101417.72;4930153;28;44919;-81
2023/09/04 04:36:38;;;;;;;;;9.33;9.33;;;;;23.92;73.06;101413.91;4930068;28;47560;-81
2023/09/04 04:39:04;;;;;;;;;10.33;10.00;;;;;23.90;73.16;101416.66;4930933;28;44769;-82
2023/09/04 04:41:31;;;;;;;;;12.67;11.00;;;;;24.04;72.52;101410.78;4930280;28;44781;-81
2023/09/04 04:43:56;;;;;;;;;11.67;11.67;;;;;23.97;72.65;101401.03;4914400;28;44804;-81
2023/09/04 04:46:22;;;;;;;;;10.67;10.67;;;;;23.94;72.92;101409.31;4914240;28;47329;-81
2023/09/04 04:48:49;;;;;;;;;9.00;9.00;;;;;24.01;72.68;101408.16;4914461;28;44841;-81
2023/09/04 04:53:50;;;;;;;;;11.00;11.00;;;;;23.90;72.89;101408.50;4793030;26;45079;-81
2023/09/04 04:56:16;;;;;;;;;9.67;9.67;;;;;23.87;72.56;101407.69;4929385;28;44981;-81
2023/09/04 05:09:03;;;;;;;;;13.33;13.33;;;;;23.82;73.63;101409.69;5542609;23;46731;-81
2023/09/04 05:11:29;;;;;;;;;14.00;14.00;;;;;23.74;73.63;101408.03;4931160;28;45340;-81
2023/09/04 05:13:54;;;;;;;;;12.67;12.67;;;;;23.75;74.28;101419.78;4930068;28;44772;-81
2023/09/04 05:16:20;;;;;;;;;14.00;14.00;;;;;23.71;73.72;101412.66;4930062;28;45349;-82
2023/09/04 05:18:49;;;;;;;;;16.67;16.67;;;;;23.80;73.45;101414.28;4930777;28;44741;-81
2023/09/04 05:21:15;;;;;;;;;13.00;13.00;;;;;23.71;73.78;101412.66;4930485;28;44865;-81
2023/09/04 05:23:40;;;;;;;;;12.67;12.67;;;;;23.67;73.87;101409.19;5568471;23;46728;-81
2023/09/04 05:26:06;;;;;;;;;14.33;13.67;;;;;23.67;73.56;101413.69;4933214;29;45493;-83
2023/09/04 05:28:32;;;;;;;;;11.67;11.33;;;;;23.67;73.99;101401.03;4932919;29;44818;-82
2023/09/04 05:31:03;;;;;;;;;12.67;11.67;;;;;23.81;73.26;101416.03;4933746;29;45053;-82
2023/09/04 05:33:29;;;;;;;;;16.00;15.00;;;;;23.65;72.99;101408.34;4932656;29;44691;-82
2023/09/04 05:35:56;;;;;;;;;15.67;14.33;;;;;23.65;73.92;101412.84;4911885;28;44903;-81
2023/09/04 05:38:21;;;;;;;;;15.00;15.00;;;;;23.57;73.22;101410.34;4912335;28;44772;-81
2023/09/04 05:40:58;;;;;;;;;13.33;13.33;;;;;23.74;73.46;101409.88;4913287;29;44854;-79
2023/09/04 05:43:24;;;;;;;;;12.33;12.33;;;;;23.52;73.19;101409.63;4913975;28;44865;-81
2023/09/04 05:45:49;;;;;;;;;14.00;14.00;;;;;23.59;73.23;101423.91;4913051;28;45072;-80
2023/09/04 05:48:15;;;;;;;;;13.67;13.00;;;;;23.58;73.16;101411.28;4912782;28;45216;-78
2023/09/04 05:50:41;;;;;;;;;12.00;11.67;;;;;23.64;72.80;101417.41;4930390;28;44800;-81
2023/09/04 05:53:06;;;;;;;;;14.00;13.00;;;;;23.69;72.67;101414.53;4913545;28;44979;-81
2023/09/04 05:55:35;;;;;;;;;15.33;14.00;;;;;23.84;72.71;101414.13;4913119;29;47304;-81
2023/09/04 05:58:01;;;;;;;;;13.00;13.00;;;;;23.66;72.44;101412.81;4913198;28;44968;-83
2023/09/04 06:00:27;;;;;;;;;14.33;14.33;;;;;23.64;72.69;101400.22;4912871;28;44742;-81
2023/09/04 06:31:29;;;;;;;;;13.67;13.00;;;;;24.44;70.09;101414.94;5064476;23;46171;-84
2023/09/04 06:33:55;;;;;;;;;11.00;11.00;;;;;24.25;69.90;101395.63;4926976;28;44846;-84
2023/09/04 06:36:24;;;;;;;;;15.33;14.33;;;;;24.37;69.54;101407.91;4909286;29;45275;-85
2023/09/04 06:38:49;;;;;;;;;13.00;13.00;;;;;24.54;69.47;101429.13;5381605;23;45378;-86
2023/09/04 06:51:42;;;;;;;;;15.00;13.00;;;;;24.63;68.28;101393.50;5531100;23;45640;-86
2023/09/04 06:54:11;;;;;;;;;14.00;13.00;;;;;24.97;67.74;101419.53;4928590;28;44815;-85
2023/09/04 06:56:36;;;;;;;;;13.00;13.00;;;;;24.86;68.01;101411.72;4911599;28;46848;-85
2023/09/04 07:04:12;;;;;;;;;14.00;13.67;;;;;24.99;66.32;101427.66;5200859;23;46528;-84
2023/09/04 07:06:39;;;;;;;;;13.00;13.00;;;;;24.91;66.79;101407.03;4908209;28;45892;-84
2023/09/04 07:09:05;;;;;;;;;15.33;14.33;;;;;24.94;66.56;101397.84;4906337;28;44936;-85
2023/09/04 07:11:33;;;;;;;;;17.00;16.00;;;;;24.99;66.47;101365.94;4924301;28;44869;-80
2023/09/04 07:14:01;;;;;;;;;16.33;15.00;;;;;25.12;65.59;101385.44;4927110;28;44795;-81
2023/09/04 07:16:27;;;;;;;;;12.00;12.00;;;;;25.08;66.07;101400.09;4910707;28;47533;-81
2023/09/04 07:24:00;;;;;;;;;13.00;13.00;;;;;25.26;65.01;101418.50;4908261;28;46647;-81
2023/09/04 07:26:29;;;;;;;;;11.67;11.67;;;;;25.33;65.06;101401.00;4892054;28;46847;-79
2023/09/04 07:29:07;;;;;;;;;18.00;16.00;;;;;25.27;64.75;101378.56;4906461;29;44938;-81
2023/09/04 07:31:32;;;;;;;;;13.33;13.33;;;;;25.26;65.19;101399.44;4908430;28;45187;-78
2023/09/04 07:35:15;;;;;;;;;16.67;16.00;;;;;25.74;64.76;101412.16;4908519;28;44890;-80
2023/09/04 07:37:47;;;;;;;;;13.00;12.67;;;;;25.82;64.05;101414.59;4905312;28;45129;-80
2023/09/04 07:40:13;;;;;;;;;15.67;14.00;;;;;25.68;64.29;101406.97;4907576;28;45308;-82
2023/09/04 07:42:42;;;;;;;;;14.33;13.00;;;;;25.81;63.48;101407.34;4885979;29;44943;-80
2023/09/04 07:45:08;;;;;;;;;14.00;12.33;;;;;25.72;64.24;101402.28;4878152;28;45377;-80
2023/09/04 07:47:35;;;;;;;;;15.67;15.67;;;;;25.89;63.85;101407.06;4876967;28;47210;-81
2023/09/04 07:50:00;;;;;;;;;15.33;13.67;;;;;25.82;63.61;101409.16;4872262;28;44863;-80
2023/09/04 07:52:26;;;;;;;;;13.00;13.00;;;;;25.92;63.49;101402.44;4902064;28;45092;-80
2023/09/04 07:54:51;;;;;;;;;15.33;14.00;;;;;26.01;62.76;101414.78;4874255;29;44960;-81
2023/09/04 07:57:19;;;;;;;;;13.00;12.67;;;;;26.12;61.73;101404.34;4874864;28;46915;-80
2023/09/04 08:03:10;;;;;;;;;11.33;11.00;;;;;26.19;62.57;101404.09;4902133;28;45009;-79
2023/09/04 08:05:35;;;;;;;;;12.67;12.67;;;;;26.04;62.19;101392.88;4890134;29;44840;-80
2023/09/04 08:08:02;;;;;;;;;13.67;13.67;;;;;26.07;62.08;101398.19;4905519;28;44912;-80
2023/09/04 08:10:30;;;;;;;;;16.00;16.00;;;;;26.35;61.93;101405.25;4890762;29;44853;-80
2023/09/04 08:13:03;;;;;;;;;13.33;12.00;;;;;26.45;61.89;101409.38;4906377;28;44858;-80
2023/09/04 08:16:13;;;;;;;;;14.00;14.00;;;;;26.60;60.85;101401.53;4889575;28;45274;-81
2023/09/04 08:18:41;;;;;;;;;12.00;12.00;;;;;26.49;60.67;101402.84;4890294;28;47127;-80
2023/09/04 08:21:07;;;;;;;;;15.33;14.00;;;;;26.39;60.64;101408.75;4905116;28;44787;-79
2023/09/04 08:23:33;;;;;;;;;16.00;14.33;;;;;26.38;60.44;101412.41;4880680;29;44883;-79
2023/09/04 08:26:06;;;;;;;;;13.00;12.00;;;;;26.50;60.56;101406.44;4893849;29;45056;-79
2023/09/04 08:29:13;;;;;;;;;14.00;12.67;;;;;26.59;60.41;101392.47;4870686;29;45318;-80
2023/09/04 08:31:38;;;;;;;;;13.67;13.67;;;;;26.50;60.10;101407.34;4882770;29;45013;-80
2023/09/04 08:34:04;;;;;;;;;15.00;13.33;;;;;26.61;60.28;101409.66;4894061;29;44854;-80
2023/09/04 08:36:29;;;;;;;;;14.67;13.00;;;;;26.66;60.63;101401.25;4884335;28;44963;-80
2023/09/04 08:38:55;;;;;;;;;15.33;13.00;;;;;26.68;59.84;101389.34;4878214;29;46669;-79
2023/09/04 08:41:27;;;;;;;;;10.00;10.00;;;;;26.79;59.10;101386.16;4862317;29;44934;-80
2023/09/04 08:43:56;;;;;;;;;14.33;14.00;;;;;26.60;59.48;101386.06;4876946;29;45099;-79
2023/09/04 08:46:22;;;;;;;;;13.00;13.00;;;;;26.46;59.93;101388.44;4865278;29;45199;-81
2023/09/04 08:49:00;;;;;;;;;8.33;8.33;;;;;26.51;59.75;101373.66;4875656;29;47217;-81
2023/09/04 08:51:26;;;;;;;;;11.00;9.67;;;;;26.45;60.18;101381.22;4858355;29;44913;-78
2023/09/04 08:53:55;;;;;;;;;8.33;8.33;;;;;26.61;59.75;101376.03;4865611;29;44934;-78
2023/09/04 08:56:21;;;;;;;;;9.67;9.00;;;;;26.61;59.85;101385.09;4865471;29;45061;-78
2023/09/04 08:58:48;;;;;;;;;12.67;12.67;;;;;26.65;58.88;101377.69;4861000;29;48177;-79
2023/09/04 09:01:18;;;;;;;;;11.00;11.00;;;;;26.85;59.92;101374.97;4866143;29;44828;-78
2023/09/04 09:03:48;;;;;;;;;13.33;13.33;;;;;26.84;59.67;101384.09;4886595;29;44900;-80
2023/09/04 09:09:47;;;;;;;;;13.67;13.33;;;;;27.25;59.38;101373.22;4874895;29;44948;-78
2023/09/04 09:12:18;;;;;;;;;13.33;12.00;;;;;27.32;59.28;101363.75;4860707;29;44969;-80
2023/09/04 09:14:44;;;;;;;;;16.00;15.67;;;;;27.18;58.45;101363.47;4888683;29;44861;-78
2023/09/04 09:17:14;;;;;;;;;12.33;12.33;;;;;27.27;58.50;101352.19;4872662;29;45537;-79
2023/09/04 09:20:28;;;;;;;;;12.00;12.00;;;;;27.49;58.81;101357.53;4864365;29;47602;-81
2023/09/04 09:22:53;;;;;;;;;14.00;14.00;;;;;27.30;57.52;101345.69;4879953;29;44820;-79
2023/09/04 09:25:19;;;;;;;;;14.33;13.67;;;;;27.20;58.03;101317.88;4894430;28;44871;-79
2023/09/04 09:27:45;;;;;;;;;12.33;11.33;;;;;27.43;57.83;101346.91;4879392;29;44968;-80
2023/09/04 09:30:12;;;;;;;;;11.00;11.00;;;;;27.28;58.29;101307.50;4895481;29;45317;-79
2023/09/04 09:32:38;;;;;;;;;12.00;12.00;;;;;27.53;57.62;101350.97;4890697;29;44811;-78
2023/09/04 09:35:06;;;;;;;;;13.00;12.33;;;;;27.68;57.67;101354.81;4858457;28;44983;-79
2023/09/04 09:37:42;;;;;;;;;14.33;12.67;;;;;27.60;58.13;101337.88;4897066;29;44885;-80
2023/09/04 09:40:16;;;;;;;;;9.00;9.00;;;;;27.79;58.01;101339.72;4879219;29;45579;-79
2023/09/04 09:42:44;;;;;;;;;12.67;11.00;;;;;27.78;57.01;101341.59;4890962;29;45258;-80
2023/09/04 09:45:12;;;;;;;;;6.00;6.00;;;;;27.87;57.58;101327.47;4874052;29;44874;-79
2023/09/04 09:47:41;;;;;;;;;13.33;13.33;;;;;27.88;57.48;101317.47;4876113;29;44957;-80
2023/09/04 09:50:08;;;;;;;;;12.67;12.67;;;;;28.03;57.00;101326.75;4892890;28;45633;-83
2023/09/04 09:52:59;;;;;;;;;11.00;11.00;;;;;27.80;57.07;101298.66;4886154;29;45213;-81
2023/09/04 09:55:44;;;;;;;;;9.67;9.67;;;;;27.99;56.66;101284.97;4880597;29;45065;-81
2023/09/04 09:58:23;;;;;;;;;12.67;12.33;;;;;28.05;56.75;101281.06;4886787;29;44938;-81
2023/09/04 10:00:58;;;;;;;;;10.00;10.00;;;;;28.22;56.87;101332.16;4881624;29;46356;-81
2023/09/04 10:03:38;;;;;;;;;11.00;11.00;;;;;28.32;56.92;101322.56;4883083;28;45521;-81
2023/09/04 10:06:04;;;;;;;;;12.00;12.00;;;;;28.17;56.69;101309.66;4876250;29;44942;-79
2023/09/04 10:08:43;;;;;;;;;12.00;10.33;;;;;28.32;55.88;101300.66;4888946;29;44968;-78
2023/09/04 10:11:21;;;;;;;;;10.33;10.33;;;;;28.46;55.46;101303.56;4891717;29;46455;-79
2023/09/04 10:14:05;;;;;;;;;10.00;9.33;;;;;28.53;56.04;101315.97;4878513;29;44782;-77
2023/09/04 10:20:21;;;;;;;;;11.00;11.00;;;;;28.67;55.18;101292.50;4876482;29;45950;-80
2023/09/04 10:23:17;;;;;;;;;12.00;12.00;;;;;28.64;55.97;101298.13;4871587;29;47005;-79
2023/09/04 10:25:54;;;;;;;;;13.00;13.00;;;;;28.78;55.00;101292.78;4876025;29;44956;-79
2023/09/04 10:28:50;;;;;;;;;11.33;11.33;;;;;28.84;55.44;101286.97;4877239;29;44784;-79
2023/09/04 10:31:20;;;;;;;;;10.67;10.67;;;;;28.91;55.51;101284.81;4852135;29;44851;-79
2023/09/04 10:34:12;;;;;;;;;11.67;11.00;;;;;29.00;55.28;101269.72;4871509;29;46639;-78
2023/09/04 10:36:42;;;;;;;;;11.00;11.00;;;;;29.02;54.92;101271.41;4871143;29;44880;-79
2023/09/04 10:39:08;;;;;;;;;11.67;10.67;;;;;28.96;54.56;101262.66;4871442;29;44890;-78
2023/09/04 10:41:46;;;;;;;;;11.67;11.67;;;;;29.10;54.38;101236.25;4871311;29;44805;-79
2023/09/04 10:44:44;;;;;;;;;8.50;8.50;;;;;29.32;54.08;101246.94;4872462;29;47124;-78
2023/09/04 10:47:10;;;;;;;;;11.67;11.67;;;;;29.04;54.64;101213.81;4863951;29;44870;-79
2023/09/04 10:49:36;;;;;;;;;9.67;9.67;;;;;29.11;54.42;101212.56;4876047;29;45484;-80
2023/09/04 10:52:12;;;;;;;;;13.67;11.00;;;;;29.41;54.38;101214.50;4872308;29;44969;-79
2023/09/04 10:54:41;;;;;;;;;8.67;8.67;;;;;29.47;53.30;101216.88;4869976;29;47182;-80
2023/09/04 10:57:11;;;;;;;;;11.67;11.67;;;;;29.42;53.09;101227.25;4855750;29;44746;-78
2023/09/04 11:00:01;;;;;;;;;7.00;7.00;;;;;29.67;52.87;101227.59;4872847;29;44918;-79
2023/09/04 11:02:34;;;;;;;;;11.00;11.00;;;;;29.56;53.71;101232.81;4868572;29;44734;-80
2023/09/04 11:05:57;;;;;;;;;10.33;10.00;;;;;29.73;52.88;101214.53;4873063;29;47273;-80
2023/09/04 11:12:58;;;;;;;;;;;;;;;;;;;;;
2023/09/04 11:22:24;;;;;;;;;9.33;9.33;;;;;29.47;52.38;101181.25;4874815;29;45056;-81
2023/09/04 11:25:00;;;;;;;;;10.25;8.75;;;;;29.62;51.96;101191.34;4853284;29;44852;-81
2023/09/04 11:27:31;;;;;;;;;9.33;9.33;;;;;29.71;51.46;101166.16;4851767;29;44871;-81
2023/09/04 11:30:05;;;;;;;;;10.67;10.67;;;;;29.69;51.57;101167.16;4847520;29;46588;-80
2023/09/04 11:32:54;;;;;;;;;9.00;9.00;;;;;29.78;51.56;101152.09;4839825;29;44842;-80
2023/09/04 11:35:21;;;;;;;;;8.33;8.33;;;;;29.88;52.11;101153.31;4829243;29;45572;-82
2023/09/04 11:37:51;;;;;;;;;13.00;11.00;;;;;30.04;51.68;101178.81;4839615;29;45011;-81
2023/09/04 11:40:33;;;;;;;;;11.00;9.67;;;;;30.30;51.25;101181.88;4839037;29;45259;-83
2023/09/04 11:49:48;;;;;;;;;10.00;9.67;;;;;30.46;50.28;101163.47;4835964;29;45281;-79
2023/09/04 11:52:26;;;;;;;;;10.00;9.33;;;;;30.32;49.79;101136.00;4816391;29;46882;-83
2023/09/04 11:55:11;;;;;;;;;10.33;10.33;;;;;30.43;49.48;101160.00;4821541;29;44922;-81
2023/09/04 11:57:38;;;;;;;;;7.67;7.67;;;;;30.54;49.63;101167.56;4816477;29;45029;-79
2023/09/04 12:00:07;;;;;;;;;9.67;8.33;;;;;30.37;50.13;101124.72;4821798;29;44944;-81
2023/09/04 12:02:48;;;;;;;;;11.00;10.33;;;;;30.65;48.40;101157.66;4822111;29;45494;-80
2023/09/04 12:05:20;;;;;;;;;6.67;6.67;;;;;30.46;49.03;101121.38;4820170;29;44922;-81
2023/09/04 12:07:58;;;;;;;;;7.33;7.33;;;;;30.47;49.32;101139.63;4805725;29;44913;-79
2023/09/04 12:10:33;;;;;;;;;9.00;8.00;;;;;30.67;47.73;101130.13;4805669;29;45376;-81
2023/09/04 12:23:23;;;;;;;;;6.33;6.33;;;;;30.68;46.65;101110.81;4767723;29;44961;-80
2023/09/04 12:26:59;;;;;;;;;6.75;6.00;;;;;30.89;47.63;101130.53;4781935;29;46733;-82
2023/09/04 12:30:04;;;;;;;;;8.25;8.25;;;;;30.95;46.89;101133.88;4753123;29;44961;-81
2023/09/04 12:35:33;;;;;;;;;7.00;7.00;;;;;31.18;45.80;101113.97;4997986;23;45646;-81
2023/09/04 12:38:31;;;;;;;;;7.00;6.67;;;;;31.17;45.69;101112.22;4885098;29;47346;-82
2023/09/04 12:43:57;;;;;;;;;4.67;4.67;;;;;31.16;45.94;101099.47;5144133;23;45002;-80
2023/09/04 12:47:02;;;;;;;;;;;;;;;;;;;;;
2023/09/04 12:53:01;;;;;;;;;;;;;;;;;;;;;
2023/09/04 13:00:58;;;;;;;;;7.33;7.33;;;;;31.18;42.76;101064.53;3050370;23;46531;-80
2023/09/04 13:03:26;;;;;;;;;6.33;6.33;;;;;31.00;44.32;101049.28;4903276;28;44909;-80
2023/09/04 13:06:03;;;;;;;;;5.33;5.33;;;;;31.07;43.16;101040.53;4919400;29;44812;-80
2023/09/04 13:26:04;;;;;;;;;;;;;;;;;;;;;
2023/09/04 13:28:47;;;;;;;;;4.00;3.00;;;;;31.64;41.08;101022.91;4858365;29;68013;-81
2023/09/04 13:33:59;;;;;;;;;4.00;4.00;;;;;31.56;40.02;101019.81;4895425;28;45198;-81
2023/09/04 13:36:28;;;;;;;;;7.67;7.00;;;;;31.36;41.50;101010.16;4899596;28;44757;-81
2023/09/04 13:39:28;;;;;;;;;4.67;4.67;;;;;31.49;41.35;100993.72;5102612;23;45087;-81
2023/09/04 13:42:21;;;;;;;;;5.33;5.33;;;;;31.55;40.95;100998.84;4865337;29;44849;-82
2023/09/04 13:45:35;;;;;;;;;5.00;5.00;;;;;31.63;40.10;101009.25;4864521;29;45088;-80
2023/09/04 13:48:26;;;;;;;;;7.00;7.00;;;;;31.76;40.61;101012.91;4858350;29;44833;-80
2023/09/04 13:51:10;;;;;;;;;6.00;6.00;;;;;31.61;41.61;100992.91;4865530;29;44884;-81
2023/09/04 14:04:33;;;;;;;;;5.33;5.33;;;;;31.75;40.69;100963.53;3075580;23;45405;-79
2023/09/04 14:06:59;;;;;;;;;6.25;5.00;;;;;31.82;40.52;100962.97;4861280;29;45236;-79
2023/09/04 14:09:28;;;;;;;;;5.00;5.00;;;;;32.11;38.31;100959.13;4860725;29;44850;-79
2023/09/04 14:11:54;;;;;;;;;5.33;5.33;;;;;33.40;37.69;100930.97;4875760;29;44864;-79
2023/09/04 14:14:58;;;;;;;;;4.75;4.75;;;;;36.69;33.60;100931.50;5276564;23;46584;-80
2023/09/04 14:25:13;;;;;;;;;3.25;3.25;;;;;43.53;25.04;100960.00;5089480;23;46182;-79
2023/09/04 14:27:44;;;;;;;;;5.00;5.00;;;;;43.88;25.25;100955.66;4903172;29;47268;-80
2023/09/04 14:30:10;;;;;;;;;4.00;4.00;;;;;43.97;27.13;100961.19;4916524;29;44781;-79
2023/09/04 14:32:36;;;;;;;;;5.00;5.00;;;;;41.75;27.58;100946.63;4899662;29;44912;-79
2023/09/04 14:35:02;;;;;;;;;2.00;2.00;;;;;39.47;28.60;100939.19;4900830;29;44893;-78
2023/09/04 14:37:41;;;;;;;;;6.00;5.00;;;;;37.77;29.82;100956.31;4876638;29;46448;-79
2023/09/04 14:40:15;;;;;;;;;5.00;5.00;;;;;36.25;32.23;100934.56;4915638;28;44875;-80